Calmar/Wizard Lake Airport

CWL3 · Alberta, Canadá

3 de octubre de 2022

Hora Código Tiempo Temp. Visibilidad Cielo nuboso Viento METAR/SPECI
11:00
V
14 °C 9 mi - 150° 150° 7 kt METAR CZVL 031700Z AUTO 15007KT 9SM SCT110 SCT130 14/03 A3016 RMK SLP226 DENSITY ALT 2500FT
10:00
V
11 °C 9 mi 12.000 ft 130° 130° 6 kt METAR CZVL 031600Z AUTO 13006KT 9SM SCT096 BKN120 11/03 A3016 RMK SLP225
09:00
V
9 °C 9 mi 9.800 ft 090° 090° 3 kt METAR CZVL 031500Z AUTO 09003KT 060V130 9SM SCT071 OVC098 09/04 A3017 RMK ICE MISG SLP233
08:00
V
7 °C 9 mi 7.100 ft 300° 300° 4 kt METAR CZVL 031400Z AUTO 30004KT 9SM BKN071 OVC095 07/04 A3018 RMK SLP234
07:00
V
5 °C 9 mi - Var Var 2 kt METAR CZVL 031300Z AUTO VRB02KT 9SM SCT081 05/04 A3016 RMK SLP230
06:00
V
8 °C 9 mi 9.700 ft Var 000° 0 kt METAR CZVL 031200Z AUTO 00000KT 9SM FEW081 BKN097 OVC130 08/05 A3015 RMK SLP217
05:10
V
7 °C 9 mi 9.600 ft 330° 330° 3 kt METAR CZVL 031110Z AUTO 33003KT 9SM OVC096 07/06 A3016 RMK SLP232
05:00
V
8 °C 9 mi 9.700 ft 360° 360° 3 kt METAR CZVL 031100Z AUTO 36003KT 280V010 9SM -RA FEW066 OVC097 08/06 A3016 RMK SLP218
04:47
V
8 °C 9 mi 10.000 ft 250° 250° 2 kt METAR CZVL 031047Z AUTO 25002KT 9SM -RA FEW066 OVC100 08/06 A3016 RMK SLP232
04:00
V
7 °C 9 mi 11.000 ft Var 000° 0 kt METAR CZVL 031000Z AUTO 00000KT 9SM BKN110 BKN130 07/04 A3015 RMK SLP218
03:00
V
5 °C 9 mi - 310° 310° 2 kt METAR CZVL 030900Z AUTO 31002KT 9SM CLR 05/03 A3015 RMK SLP217
02:00
V
6 °C 9 mi - Var Var 2 kt METAR CZVL 030800Z AUTO VRB02KT 9SM CLR 06/03 A3013 RMK SLP210
01:00
V
7 °C 9 mi - Var 000° 0 kt METAR CZVL 030700Z AUTO 00000KT 9SM CLR 07/05 A3012 RMK SLP206
00:00
V
8 °C 9 mi - 300° 300° 3 kt METAR CZVL 030600Z AUTO 30003KT 9SM CLR 08/06 A3012 RMK SLP208

2 de octubre de 2022

Hora Código Tiempo Temp. Visibilidad Cielo nuboso Viento METAR/SPECI
23:00
V
10 °C 9 mi 9.100 ft 310° 310° 3 kt METAR CZVL 030500Z AUTO 31003KT 9SM BKN091 10/07 A3010 RMK SLP204
22:00
V
12 °C 9 mi - 320° 320° 6 kt METAR CZVL 030400Z AUTO 32006KT 9SM FEW096 12/08 A3010 RMK SLP204 DENSITY ALT 2300FT
21:00
V
12 °C 9 mi - 320° 320° 4 kt METAR CZVL 030300Z AUTO 32004KT 9SM CLR 12/07 A3009 RMK SLP204 DENSITY ALT 2300FT
20:00
V
15 °C 9 mi - 350° 350° 4 kt METAR CZVL 030200Z AUTO 35004KT 9SM CLR 15/08 A3006 RMK SLP192 DENSITY ALT 2700FT
19:00
V
16 °C 9 mi - 360° 360° 3 kt METAR CZVL 030100Z AUTO 36003KT 290V010 9SM FEW170 16/08 A3004 RMK SLP182 DENSITY ALT 2800FT
18:00
V
23 °C 9 mi - 350° 350° 3 kt METAR CZVL 030000Z AUTO 35003KT 270V010 9SM CLR 23/09 A3003 RMK SLP172 DENSITY ALT 3600FT
17:00
V
24 °C 9 mi - 350° 350° 5 kt METAR CZVL 022300Z AUTO 35005KT 9SM CLR 24/09 A3002 RMK SLP169 DENSITY ALT 3700FT
16:00
V
24 °C 9 mi - 340° 340° 10 kt METAR CZVL 022200Z AUTO 34010KT 9SM CLR 24/08 A3002 RMK SLP169 DENSITY ALT 3700FT
15:00
V
24 °C 9 mi - 330° 330° 10 - 15 kt METAR CZVL 022100Z AUTO 33010G15KT 9SM CLR 24/07 A3002 RMK SLP168 DENSITY ALT 3700FT
14:00
V
24 °C 9 mi - 360° 360° 8 kt METAR CZVL 022000Z AUTO 36008KT 9SM CLR 24/07 A3001 RMK SLP166 DENSITY ALT 3800FT
13:00
V
23 °C 9 mi - 350° 350° 10 kt METAR CZVL 021900Z AUTO 35010KT 9SM CLR 23/08 A3001 RMK SLP165 DENSITY ALT 3600FT
12:00
V
21 °C 9 mi - 330° 330° 10 kt METAR CZVL 021800Z AUTO 33010KT 9SM CLR 21/08 A3000 RMK SLP164 DENSITY ALT 3400FT
11:00
V
17 °C 9 mi - 290° 290° 5 kt METAR CZVL 021700Z AUTO 29005KT 9SM CLR 17/10 A3000 RMK SLP166 DENSITY ALT 3000FT
10:00
V
13 °C 9 mi - Var Var 2 kt METAR CZVL 021600Z AUTO VRB02KT 9SM CLR 13/10 A2999 RMK SLP164 DENSITY ALT 2500FT
09:00
V
8 °C 9 mi - Var 000° 0 kt METAR CZVL 021500Z AUTO 00000KT 9SM CLR 08/08 A2997 RMK SLP165
08:00
V
8 °C 9 mi - 180° 180° 3 kt METAR CZVL 021400Z AUTO 18003KT 9SM CLR 08/07 A2995 RMK SLP156
07:00
V
11 °C 9 mi - 200° 200° 5 kt METAR CZVL 021300Z AUTO 20005KT 9SM CLR 11/08 A2995 RMK SLP151 DENSITY ALT 2300FT
06:00
V
11 °C 9 mi - 170° 170° 5 kt METAR CZVL 021200Z AUTO 17005KT 9SM CLR 11/08 A2994 RMK SLP147 DENSITY ALT 2300FT
05:00
V
11 °C 9 mi - 180° 180° 6 kt METAR CZVL 021100Z AUTO 18006KT 9SM CLR 11/08 A2994 RMK SLP146 DENSITY ALT 2300FT
04:00
V
9 °C 9 mi - 170° 170° 6 kt METAR CZVL 021000Z AUTO 17006KT 9SM CLR 09/08 A2995 RMK SLP149
03:00
V
10 °C 9 mi - 170° 170° 7 kt METAR CZVL 020900Z AUTO 17007KT 9SM CLR 10/09 A2995 RMK SLP149
02:00
V
10 °C 6 mi - Var Var 4 kt METAR CZVL 020800Z AUTO VRB04KT 6SM BR CLR 10/08 A2996 RMK SLP153
01:00
V
12 °C 9 mi - 170° 170° 9 kt METAR CZVL 020700Z AUTO 17009KT 9SM CLR 12/09 A2996 RMK SLP154 DENSITY ALT 2400FT
00:00
V
13 °C 9 mi - 180° 180° 10 kt METAR CZVL 020600Z AUTO 18010KT 9SM CLR 13/09 A2997 RMK SLP158 DENSITY ALT 2500FT

1 de octubre de 2022

Hora Código Tiempo Temp. Visibilidad Cielo nuboso Viento METAR/SPECI
23:00
V
12 °C 9 mi - 180° 180° 10 kt METAR CZVL 020500Z AUTO 18010KT 9SM CLR 12/09 A2998 RMK SLP165 DENSITY ALT 2500FT
22:00
V
13 °C 9 mi - 170° 170° 10 kt METAR CZVL 020400Z AUTO 17010KT 9SM CLR 13/10 A2999 RMK SLP168 DENSITY ALT 2500FT
21:00
V
11 °C 9 mi - 160° 160° 8 kt METAR CZVL 020300Z AUTO 16008KT 9SM CLR 11/09 A3001 RMK SLP180 DENSITY ALT 2300FT
20:00
V
14 °C 9 mi - 140° 140° 6 kt METAR CZVL 020200Z AUTO 14006KT 9SM CLR 14/10 A3002 RMK SLP181 DENSITY ALT 2600FT
19:00
V
17 °C 9 mi - 150° 150° 8 kt METAR CZVL 020100Z AUTO 15008KT 9SM CLR 17/11 A3002 RMK SLP181 DENSITY ALT 2900FT
18:00
V
19 °C 9 mi - 140° 140° 10 kt METAR CZVL 020000Z AUTO 14010KT 9SM CLR 19/11 A3004 RMK SLP182 DENSITY ALT 3200FT
17:00
V
20 °C 9 mi - 150° 150° 10 - 16 kt METAR CZVL 012300Z AUTO 15010G16KT 9SM CLR 20/11 A3006 RMK SLP193 DENSITY ALT 3200FT
16:00
V
20 °C 9 mi - 130° 130° 10 kt METAR CZVL 012200Z AUTO 13010KT 110V170 9SM CLR 20/11 A3008 RMK SLP200 DENSITY ALT 3200FT
15:00
V
20 °C 9 mi - 160° 160° 8 - 15 kt METAR CZVL 012100Z AUTO 16008G15KT 120V180 9SM CLR 20/10 A3011 RMK SLP209 DENSITY ALT 3100FT
14:00
V
19 °C 9 mi - 160° 160° 8 kt METAR CZVL 012000Z AUTO 16008KT 100V180 9SM CLR 19/11 A3013 RMK SLP217 DENSITY ALT 3000FT
13:00
V
17 °C 9 mi - 160° 160° 9 kt METAR CZVL 011900Z AUTO 16009KT 9SM CLR 17/11 A3016 RMK SLP224 DENSITY ALT 2800FT
12:35
V
17 °C 9 mi - 170° 170° 10 kt METAR CZVL 011835Z AUTO 17010KT 9SM CLR 17/11 A3016 RMK SLP219 DENSITY ALT 2800FT
12:24
V
17 °C 5 mi - 140° 140° 8 - 15 kt METAR CZVL 011824Z AUTO 14008G15KT 5SM HZ CLR 17/11 A3017 RMK SLP228 DENSITY ALT 2700FT
12:00
V
16 °C 9 mi - 140° 140° 9 kt METAR CZVL 011800Z AUTO 14009KT 110V180 9SM CLR 16/12 A3017 RMK SLP231 DENSITY ALT 2600FT
11:00
V
11 °C 9 mi - 150° 150° 5 kt METAR CZVL 011700Z AUTO 15005KT 9SM CLR 11/11 A3021 RMK SLP246
10:00
V
10 °C 9 mi - 150° 150° 4 kt METAR CZVL 011600Z AUTO 15004KT 9SM CLR 10/10 A3022 RMK SLP249
09:00
V
6 °C 9 mi - 060° 060° 2 kt METAR CZVL 011500Z AUTO 06002KT 9SM CLR 06/06 A3022 RMK SLP253
Datos más antiguos

Nosotros y terceros seguimos tu comportamiento en Internet en nuestro sitio web con cookies. Si continúas, asumimos que estás de acuerdo con nuestra política de cookies. Más información